sensor_id;sensor_type;location;lat;lon;timestamp;P1;durP1;ratioP1;P2;durP2;ratioP2
67140;SDS011;54058;52.010;5.546;2023-03-08T00:01:38;5.85;;;3.13;;
67140;SDS011;54058;52.010;5.546;2023-03-08T00:04:04;6.82;;;3.58;;
67140;SDS011;54058;52.010;5.546;2023-03-08T00:06:30;6.32;;;3.60;;
67140;SDS011;54058;52.010;5.546;2023-03-08T00:08:56;5.57;;;4.05;;
67140;SDS011;54058;52.010;5.546;2023-03-08T00:11:27;8.00;;;3.45;;
67140;SDS011;54058;52.010;5.546;2023-03-08T00:13:52;10.30;;;4.53;;
67140;SDS011;54058;52.010;5.546;2023-03-08T00:16:19;7.53;;;3.90;;
67140;SDS011;54058;52.010;5.546;2023-03-08T00:18:45;4.05;;;3.30;;
67140;SDS011;54058;52.010;5.546;2023-03-08T00:21:11;6.68;;;3.80;;
67140;SDS011;54058;52.010;5.546;2023-03-08T00:23:39;8.73;;;4.00;;
67140;SDS011;54058;52.010;5.546;2023-03-08T00:26:05;6.47;;;3.88;;
67140;SDS011;54058;52.010;5.546;2023-03-08T00:28:32;11.13;;;4.22;;
67140;SDS011;54058;52.010;5.546;2023-03-08T00:31:09;6.97;;;4.20;;
67140;SDS011;54058;52.010;5.546;2023-03-08T00:33:36;6.25;;;3.95;;
67140;SDS011;54058;52.010;5.546;2023-03-08T00:36:06;6.45;;;4.20;;
67140;SDS011;54058;52.010;5.546;2023-03-08T00:38:47;7.78;;;4.80;;
67140;SDS011;54058;52.010;5.546;2023-03-08T00:43:40;5.88;;;3.90;;
67140;SDS011;54058;52.010;5.546;2023-03-08T00:46:07;8.68;;;4.30;;
67140;SDS011;54058;52.010;5.546;2023-03-08T00:48:38;6.25;;;5.22;;
67140;SDS011;54058;52.010;5.546;2023-03-08T00:53:32;12.70;;;5.50;;
67140;SDS011;54058;52.010;5.546;2023-03-08T00:55:58;8.75;;;5.45;;
67140;SDS011;54058;52.010;5.546;2023-03-08T00:58:26;11.38;;;6.28;;
67140;SDS011;54058;52.010;5.546;2023-03-08T01:03:19;12.40;;;5.97;;
67140;SDS011;54058;52.010;5.546;2023-03-08T01:05:49;11.40;;;6.32;;
67140;SDS011;54058;52.010;5.546;2023-03-08T01:08:17;8.15;;;5.65;;
67140;SDS011;54058;52.010;5.546;2023-03-08T01:10:51;9.07;;;5.88;;
67140;SDS011;54058;52.010;5.546;2023-03-08T01:13:18;11.98;;;7.07;;
67140;SDS011;54058;52.010;5.546;2023-03-08T01:15:44;14.43;;;6.53;;
67140;SDS011;54058;52.010;5.546;2023-03-08T01:18:11;12.20;;;6.63;;
67140;SDS011;54058;52.010;5.546;2023-03-08T01:20:37;10.35;;;5.90;;
67140;SDS011;54058;52.010;5.546;2023-03-08T01:23:03;10.75;;;7.13;;
67140;SDS011;54058;52.010;5.546;2023-03-08T01:25:29;7.97;;;6.32;;
67140;SDS011;54058;52.010;5.546;2023-03-08T01:27:54;11.38;;;6.38;;
67140;SDS011;54058;52.010;5.546;2023-03-08T01:30:20;13.45;;;6.50;;
67140;SDS011;54058;52.010;5.546;2023-03-08T01:32:46;10.13;;;6.88;;
67140;SDS011;54058;52.010;5.546;2023-03-08T01:35:11;9.35;;;5.90;;
67140;SDS011;54058;52.010;5.546;2023-03-08T01:37:38;13.23;;;7.28;;
67140;SDS011;54058;52.010;5.546;2023-03-08T01:40:04;9.80;;;6.60;;
67140;SDS011;54058;52.010;5.546;2023-03-08T01:42:31;13.93;;;6.72;;
67140;SDS011;54058;52.010;5.546;2023-03-08T01:44:58;10.45;;;6.93;;
67140;SDS011;54058;52.010;5.546;2023-03-08T01:47:30;11.88;;;6.65;;
67140;SDS011;54058;52.010;5.546;2023-03-08T01:49:58;11.68;;;5.90;;
67140;SDS011;54058;52.010;5.546;2023-03-08T01:52:32;8.98;;;6.43;;
67140;SDS011;54058;52.010;5.546;2023-03-08T01:55:06;14.65;;;7.70;;
67140;SDS011;54058;52.010;5.546;2023-03-08T01:57:36;16.05;;;8.13;;
67140;SDS011;54058;52.010;5.546;2023-03-08T02:00:08;16.17;;;7.18;;
67140;SDS011;54058;52.010;5.546;2023-03-08T02:02:40;14.18;;;7.88;;
67140;SDS011;54058;52.010;5.546;2023-03-08T02:05:08;11.73;;;7.22;;
67140;SDS011;54058;52.010;5.546;2023-03-08T02:07:35;13.53;;;7.73;;
67140;SDS011;54058;52.010;5.546;2023-03-08T02:10:01;10.68;;;7.60;;
67140;SDS011;54058;52.010;5.546;2023-03-08T02:12:27;14.68;;;7.72;;
67140;SDS011;54058;52.010;5.546;2023-03-08T02:14:53;12.88;;;7.30;;
67140;SDS011;54058;52.010;5.546;2023-03-08T02:17:21;12.30;;;8.10;;
67140;SDS011;54058;52.010;5.546;2023-03-08T02:19:51;13.43;;;8.70;;
67140;SDS011;54058;52.010;5.546;2023-03-08T02:22:21;14.98;;;8.38;;
67140;SDS011;54058;52.010;5.546;2023-03-08T02:24:47;13.90;;;8.10;;
67140;SDS011;54058;52.010;5.546;2023-03-08T02:27:14;15.40;;;9.48;;
67140;SDS011;54058;52.010;5.546;2023-03-08T02:29:44;13.68;;;8.73;;
67140;SDS011;54058;52.010;5.546;2023-03-08T02:32:12;16.75;;;9.95;;
67140;SDS011;54058;52.010;5.546;2023-03-08T02:34:42;18.88;;;9.15;;
67140;SDS011;54058;52.010;5.546;2023-03-08T02:37:08;17.85;;;10.13;;
67140;SDS011;54058;52.010;5.546;2023-03-08T02:39:33;17.08;;;9.82;;
67140;SDS011;54058;52.010;5.546;2023-03-08T02:41:59;15.65;;;8.45;;
67140;SDS011;54058;52.010;5.546;2023-03-08T02:44:25;14.95;;;9.65;;
67140;SDS011;54058;52.010;5.546;2023-03-08T02:46:55;20.58;;;10.27;;
67140;SDS011;54058;52.010;5.546;2023-03-08T02:49:21;16.73;;;9.65;;
67140;SDS011;54058;52.010;5.546;2023-03-08T02:51:46;15.20;;;10.48;;
67140;SDS011;54058;52.010;5.546;2023-03-08T02:54:12;17.65;;;10.32;;
67140;SDS011;54058;52.010;5.546;2023-03-08T02:56:37;19.17;;;10.38;;
67140;SDS011;54058;52.010;5.546;2023-03-08T02:59:04;21.20;;;10.48;;
67140;SDS011;54058;52.010;5.546;2023-03-08T03:01:29;18.35;;;10.63;;
67140;SDS011;54058;52.010;5.546;2023-03-08T03:03:55;22.83;;;10.00;;
67140;SDS011;54058;52.010;5.546;2023-03-08T03:06:21;17.63;;;10.52;;
67140;SDS011;54058;52.010;5.546;2023-03-08T03:08:46;16.88;;;10.18;;
67140;SDS011;54058;52.010;5.546;2023-03-08T03:11:13;18.95;;;11.25;;
67140;SDS011;54058;52.010;5.546;2023-03-08T03:13:40;16.48;;;10.50;;
67140;SDS011;54058;52.010;5.546;2023-03-08T03:16:06;18.25;;;10.63;;
67140;SDS011;54058;52.010;5.546;2023-03-08T03:18:33;22.08;;;11.68;;
67140;SDS011;54058;52.010;5.546;2023-03-08T03:21:06;15.02;;;9.55;;
67140;SDS011;54058;52.010;5.546;2023-03-08T03:23:33;23.88;;;13.20;;
67140;SDS011;54058;52.010;5.546;2023-03-08T03:26:18;21.75;;;13.05;;
67140;SDS011;54058;52.010;5.546;2023-03-08T03:28:46;31.50;;;16.77;;
67140;SDS011;54058;52.010;5.546;2023-03-08T03:31:13;34.33;;;17.40;;
67140;SDS011;54058;52.010;5.546;2023-03-08T03:33:40;28.42;;;16.23;;
67140;SDS011;54058;52.010;5.546;2023-03-08T03:36:07;31.00;;;15.52;;
67140;SDS011;54058;52.010;5.546;2023-03-08T03:38:35;26.08;;;14.88;;
67140;SDS011;54058;52.010;5.546;2023-03-08T03:43:28;29.20;;;15.02;;
67140;SDS011;54058;52.010;5.546;2023-03-08T03:45:57;29.33;;;15.80;;
67140;SDS011;54058;52.010;5.546;2023-03-08T03:48:24;47.92;;;17.23;;
67140;SDS011;54058;52.010;5.546;2023-03-08T03:53:46;70.00;;;16.85;;
67140;SDS011;54058;52.010;5.546;2023-03-08T03:56:19;85.95;;;16.35;;
67140;SDS011;54058;52.010;5.546;2023-03-08T03:58:47;96.30;;;17.85;;
67140;SDS011;54058;52.010;5.546;2023-03-08T04:01:15;35.43;;;16.10;;
67140;SDS011;54058;52.010;5.546;2023-03-08T04:03:42;76.60;;;17.92;;
67140;SDS011;54058;52.010;5.546;2023-03-08T04:06:10;79.88;;;19.58;;
67140;SDS011;54058;52.010;5.546;2023-03-08T04:08:36;36.88;;;16.27;;
67140;SDS011;54058;52.010;5.546;2023-03-08T04:11:09;32.30;;;16.35;;
67140;SDS011;54058;52.010;5.546;2023-03-08T04:13:36;30.83;;;16.92;;
67140;SDS011;54058;52.010;5.546;2023-03-08T04:18:34;39.38;;;16.98;;
67140;SDS011;54058;52.010;5.546;2023-03-08T04:21:00;49.75;;;17.80;;
67140;SDS011;54058;52.010;5.546;2023-03-08T04:23:25;82.65;;;17.67;;
67140;SDS011;54058;52.010;5.546;2023-03-08T04:25:51;51.35;;;16.27;;
67140;SDS011;54058;52.010;5.546;2023-03-08T04:28:16;71.05;;;14.63;;
67140;SDS011;54058;52.010;5.546;2023-03-08T04:30:42;72.97;;;19.00;;
67140;SDS011;54058;52.010;5.546;2023-03-08T04:33:08;74.25;;;18.50;;
67140;SDS011;54058;52.010;5.546;2023-03-08T04:35:33;189.27;;;19.88;;
67140;SDS011;54058;52.010;5.546;2023-03-08T04:37:59;38.17;;;18.52;;
67140;SDS011;54058;52.010;5.546;2023-03-08T04:40:24;85.50;;;18.95;;
67140;SDS011;54058;52.010;5.546;2023-03-08T04:42:50;98.88;;;20.30;;
67140;SDS011;54058;52.010;5.546;2023-03-08T04:45:16;137.30;;;20.27;;
67140;SDS011;54058;52.010;5.546;2023-03-08T04:47:41;82.03;;;20.75;;
67140;SDS011;54058;52.010;5.546;2023-03-08T04:50:07;174.63;;;20.20;;
67140;SDS011;54058;52.010;5.546;2023-03-08T04:52:33;82.30;;;21.48;;
67140;SDS011;54058;52.010;5.546;2023-03-08T04:54:59;88.05;;;21.83;;
67140;SDS011;54058;52.010;5.546;2023-03-08T04:57:25;241.23;;;22.55;;
67140;SDS011;54058;52.010;5.546;2023-03-08T04:59:50;56.97;;;20.45;;
67140;SDS011;54058;52.010;5.546;2023-03-08T05:02:16;48.42;;;21.65;;
67140;SDS011;54058;52.010;5.546;2023-03-08T05:04:41;186.05;;;25.13;;
67140;SDS011;54058;52.010;5.546;2023-03-08T05:07:07;163.15;;;23.20;;
67140;SDS011;54058;52.010;5.546;2023-03-08T05:09:33;170.93;;;24.35;;
67140;SDS011;54058;52.010;5.546;2023-03-08T05:11:58;115.10;;;20.13;;
67140;SDS011;54058;52.010;5.546;2023-03-08T05:14:24;155.68;;;24.60;;
67140;SDS011;54058;52.010;5.546;2023-03-08T05:16:53;122.80;;;23.40;;
67140;SDS011;54058;52.010;5.546;2023-03-08T05:19:19;126.07;;;21.90;;
67140;SDS011;54058;52.010;5.546;2023-03-08T05:21:45;167.80;;;21.77;;
67140;SDS011;54058;52.010;5.546;2023-03-08T05:24:11;105.18;;;22.20;;
67140;SDS011;54058;52.010;5.546;2023-03-08T05:26:37;96.20;;;23.52;;
67140;SDS011;54058;52.010;5.546;2023-03-08T05:29:02;47.78;;;21.60;;
67140;SDS011;54058;52.010;5.546;2023-03-08T05:31:30;94.72;;;23.63;;
67140;SDS011;54058;52.010;5.546;2023-03-08T05:33:56;153.85;;;22.77;;
67140;SDS011;54058;52.010;5.546;2023-03-08T05:36:22;107.20;;;23.10;;
67140;SDS011;54058;52.010;5.546;2023-03-08T05:38:51;85.22;;;22.20;;
67140;SDS011;54058;52.010;5.546;2023-03-08T05:41:18;98.32;;;24.52;;
67140;SDS011;54058;52.010;5.546;2023-03-08T05:43:44;126.30;;;24.70;;
67140;SDS011;54058;52.010;5.546;2023-03-08T05:46:11;115.88;;;24.42;;
67140;SDS011;54058;52.010;5.546;2023-03-08T05:48:41;80.72;;;25.05;;
67140;SDS011;54058;52.010;5.546;2023-03-08T05:51:09;124.57;;;20.30;;
67140;SDS011;54058;52.010;5.546;2023-03-08T05:53:36;93.65;;;24.17;;
67140;SDS011;54058;52.010;5.546;2023-03-08T05:58:41;66.45;;;21.88;;
67140;SDS011;54058;52.010;5.546;2023-03-08T06:01:08;60.72;;;22.80;;
67140;SDS011;54058;52.010;5.546;2023-03-08T06:03:34;86.68;;;24.35;;
67140;SDS011;54058;52.010;5.546;2023-03-08T06:06:00;50.20;;;22.08;;
67140;SDS011;54058;52.010;5.546;2023-03-08T06:08:25;134.93;;;22.80;;
67140;SDS011;54058;52.010;5.546;2023-03-08T06:10:51;101.13;;;21.80;;
67140;SDS011;54058;52.010;5.546;2023-03-08T06:13:16;75.07;;;23.63;;
67140;SDS011;54058;52.010;5.546;2023-03-08T06:15:42;49.67;;;22.48;;
67140;SDS011;54058;52.010;5.546;2023-03-08T06:18:07;66.00;;;23.80;;
67140;SDS011;54058;52.010;5.546;2023-03-08T06:20:33;133.35;;;24.35;;
67140;SDS011;54058;52.010;5.546;2023-03-08T06:22:58;59.08;;;23.73;;
67140;SDS011;54058;52.010;5.546;2023-03-08T06:25:24;84.80;;;25.83;;
67140;SDS011;54058;52.010;5.546;2023-03-08T06:27:50;126.78;;;24.30;;
67140;SDS011;54058;52.010;5.546;2023-03-08T06:30:15;100.13;;;25.60;;
67140;SDS011;54058;52.010;5.546;2023-03-08T06:32:41;121.05;;;27.50;;
67140;SDS011;54058;52.010;5.546;2023-03-08T06:35:07;212.20;;;30.35;;
67140;SDS011;54058;52.010;5.546;2023-03-08T06:37:33;71.05;;;25.55;;
67140;SDS011;54058;52.010;5.546;2023-03-08T06:40:00;66.95;;;26.60;;
67140;SDS011;54058;52.010;5.546;2023-03-08T06:42:26;80.78;;;27.02;;
67140;SDS011;54058;52.010;5.546;2023-03-08T06:44:52;126.45;;;28.92;;
67140;SDS011;54058;52.010;5.546;2023-03-08T06:47:17;69.13;;;27.45;;
67140;SDS011;54058;52.010;5.546;2023-03-08T06:49:43;137.25;;;28.17;;
67140;SDS011;54058;52.010;5.546;2023-03-08T06:52:09;172.10;;;28.48;;
67140;SDS011;54058;52.010;5.546;2023-03-08T06:54:34;138.02;;;29.77;;
67140;SDS011;54058;52.010;5.546;2023-03-08T06:57:00;144.45;;;28.73;;
67140;SDS011;54058;52.010;5.546;2023-03-08T06:59:25;84.68;;;27.35;;
67140;SDS011;54058;52.010;5.546;2023-03-08T07:01:51;120.85;;;29.75;;
67140;SDS011;54058;52.010;5.546;2023-03-08T07:04:17;93.70;;;29.65;;
67140;SDS011;54058;52.010;5.546;2023-03-08T07:06:43;99.28;;;30.88;;
67140;SDS011;54058;52.010;5.546;2023-03-08T07:09:08;89.53;;;30.55;;
67140;SDS011;54058;52.010;5.546;2023-03-08T07:11:34;82.22;;;28.38;;
67140;SDS011;54058;52.010;5.546;2023-03-08T07:14:00;113.40;;;27.92;;
67140;SDS011;54058;52.010;5.546;2023-03-08T07:16:25;63.95;;;25.60;;
67140;SDS011;54058;52.010;5.546;2023-03-08T07:18:52;65.78;;;27.90;;
67140;SDS011;54058;52.010;5.546;2023-03-08T07:21:17;75.70;;;25.90;;
67140;SDS011;54058;52.010;5.546;2023-03-08T07:23:43;65.07;;;26.48;;
67140;SDS011;54058;52.010;5.546;2023-03-08T07:26:09;67.45;;;26.10;;
67140;SDS011;54058;52.010;5.546;2023-03-08T07:28:35;63.40;;;25.20;;
67140;SDS011;54058;52.010;5.546;2023-03-08T07:31:01;60.60;;;25.48;;
67140;SDS011;54058;52.010;5.546;2023-03-08T07:33:27;68.93;;;25.60;;
67140;SDS011;54058;52.010;5.546;2023-03-08T07:35:52;68.60;;;26.55;;
67140;SDS011;54058;52.010;5.546;2023-03-08T07:38:18;62.78;;;26.05;;
67140;SDS011;54058;52.010;5.546;2023-03-08T07:40:44;63.78;;;26.75;;
67140;SDS011;54058;52.010;5.546;2023-03-08T07:43:10;60.22;;;25.13;;
67140;SDS011;54058;52.010;5.546;2023-03-08T07:45:36;64.90;;;25.95;;
67140;SDS011;54058;52.010;5.546;2023-03-08T07:48:03;77.97;;;27.77;;
67140;SDS011;54058;52.010;5.546;2023-03-08T07:50:30;65.97;;;26.55;;
67140;SDS011;54058;52.010;5.546;2023-03-08T07:52:55;68.57;;;28.25;;
67140;SDS011;54058;52.010;5.546;2023-03-08T07:55:22;68.07;;;26.73;;
67140;SDS011;54058;52.010;5.546;2023-03-08T07:57:49;70.88;;;29.23;;
67140;SDS011;54058;52.010;5.546;2023-03-08T08:00:15;75.68;;;29.67;;
67140;SDS011;54058;52.010;5.546;2023-03-08T08:02:41;76.60;;;28.98;;
67140;SDS011;54058;52.010;5.546;2023-03-08T08:05:06;67.43;;;26.42;;
67140;SDS011;54058;52.010;5.546;2023-03-08T08:07:32;69.65;;;27.40;;
67140;SDS011;54058;52.010;5.546;2023-03-08T08:09:58;67.18;;;27.55;;
67140;SDS011;54058;52.010;5.546;2023-03-08T08:12:24;63.80;;;25.63;;
67140;SDS011;54058;52.010;5.546;2023-03-08T08:14:50;57.45;;;24.52;;
67140;SDS011;54058;52.010;5.546;2023-03-08T08:17:19;61.13;;;24.52;;
67140;SDS011;54058;52.010;5.546;2023-03-08T08:19:45;59.47;;;24.45;;
67140;SDS011;54058;52.010;5.546;2023-03-08T08:22:11;59.15;;;24.50;;
67140;SDS011;54058;52.010;5.546;2023-03-08T08:24:36;51.13;;;22.80;;
67140;SDS011;54058;52.010;5.546;2023-03-08T08:27:02;53.65;;;22.70;;
67140;SDS011;54058;52.010;5.546;2023-03-08T08:29:28;53.53;;;22.92;;
67140;SDS011;54058;52.010;5.546;2023-03-08T08:31:53;45.03;;;21.70;;
67140;SDS011;54058;52.010;5.546;2023-03-08T08:34:20;50.95;;;22.42;;
67140;SDS011;54058;52.010;5.546;2023-03-08T08:36:46;46.40;;;20.98;;
67140;SDS011;54058;52.010;5.546;2023-03-08T08:39:12;45.42;;;21.20;;
67140;SDS011;54058;52.010;5.546;2023-03-08T08:41:37;47.13;;;21.25;;
67140;SDS011;54058;52.010;5.546;2023-03-08T08:44:03;50.67;;;22.10;;
67140;SDS011;54058;52.010;5.546;2023-03-08T08:46:29;47.53;;;21.83;;
67140;SDS011;54058;52.010;5.546;2023-03-08T08:48:58;46.72;;;19.73;;
67140;SDS011;54058;52.010;5.546;2023-03-08T08:51:23;45.50;;;20.65;;
67140;SDS011;54058;52.010;5.546;2023-03-08T08:53:49;47.03;;;21.10;;
67140;SDS011;54058;52.010;5.546;2023-03-08T08:56:16;76.00;;;37.25;;
67140;SDS011;54058;52.010;5.546;2023-03-08T08:58:46;49.13;;;20.75;;
67140;SDS011;54058;52.010;5.546;2023-03-08T09:01:22;41.97;;;19.55;;
67140;SDS011;54058;52.010;5.546;2023-03-08T09:06:19;40.75;;;18.80;;
67140;SDS011;54058;52.010;5.546;2023-03-08T09:08:49;32.10;;;14.98;;
67140;SDS011;54058;52.010;5.546;2023-03-08T09:11:15;29.00;;;15.23;;
67140;SDS011;54058;52.010;5.546;2023-03-08T09:13:41;31.38;;;15.73;;
67140;SDS011;54058;52.010;5.546;2023-03-08T09:16:21;26.58;;;12.13;;
67140;SDS011;54058;52.010;5.546;2023-03-08T09:18:48;25.77;;;12.30;;
67140;SDS011;54058;52.010;5.546;2023-03-08T09:21:15;26.70;;;12.07;;
67140;SDS011;54058;52.010;5.546;2023-03-08T09:23:41;23.77;;;12.63;;
67140;SDS011;54058;52.010;5.546;2023-03-08T09:26:07;25.80;;;12.27;;
67140;SDS011;54058;52.010;5.546;2023-03-08T09:28:33;24.88;;;12.77;;
67140;SDS011;54058;52.010;5.546;2023-03-08T09:30:59;23.35;;;12.98;;
67140;SDS011;54058;52.010;5.546;2023-03-08T09:33:29;26.30;;;13.02;;
67140;SDS011;54058;52.010;5.546;2023-03-08T09:35:56;30.27;;;14.83;;
67140;SDS011;54058;52.010;5.546;2023-03-08T09:38:23;21.80;;;12.15;;
67140;SDS011;54058;52.010;5.546;2023-03-08T09:41:11;21.77;;;12.30;;
67140;SDS011;54058;52.010;5.546;2023-03-08T09:46:16;22.23;;;13.00;;
67140;SDS011;54058;52.010;5.546;2023-03-08T09:48:48;27.65;;;13.00;;
67140;SDS011;54058;52.010;5.546;2023-03-08T09:51:16;25.30;;;12.05;;
67140;SDS011;54058;52.010;5.546;2023-03-08T09:53:49;27.38;;;13.52;;
67140;SDS011;54058;52.010;5.546;2023-03-08T09:56:30;30.25;;;14.25;;
67140;SDS011;54058;52.010;5.546;2023-03-08T09:59:09;31.27;;;14.20;;
67140;SDS011;54058;52.010;5.546;2023-03-08T10:01:59;25.23;;;13.65;;
67140;SDS011;54058;52.010;5.546;2023-03-08T10:07:40;26.75;;;12.68;;
67140;SDS011;54058;52.010;5.546;2023-03-08T10:11:02;23.25;;;12.13;;
67140;SDS011;54058;52.010;5.546;2023-03-08T10:18:45;23.92;;;12.88;;
67140;SDS011;54058;52.010;5.546;2023-03-08T10:21:16;25.65;;;13.98;;
67140;SDS011;54058;52.010;5.546;2023-03-08T10:23:51;25.00;;;13.20;;
67140;SDS011;54058;52.010;5.546;2023-03-08T10:26:33;27.48;;;13.55;;
67140;SDS011;54058;52.010;5.546;2023-03-08T10:28:59;28.33;;;14.27;;
67140;SDS011;54058;52.010;5.546;2023-03-08T10:31:25;26.52;;;14.68;;
67140;SDS011;54058;52.010;5.546;2023-03-08T10:34:05;25.52;;;12.75;;
67140;SDS011;54058;52.010;5.546;2023-03-08T10:36:55;30.38;;;14.57;;
67140;SDS011;54058;52.010;5.546;2023-03-08T10:39:25;26.55;;;13.55;;
67140;SDS011;54058;52.010;5.546;2023-03-08T10:41:53;30.27;;;14.00;;
67140;SDS011;54058;52.010;5.546;2023-03-08T10:44:29;27.08;;;12.70;;
67140;SDS011;54058;52.010;5.546;2023-03-08T10:46:55;21.80;;;12.02;;
67140;SDS011;54058;52.010;5.546;2023-03-08T10:49:22;21.98;;;13.43;;
67140;SDS011;54058;52.010;5.546;2023-03-08T10:51:59;24.80;;;13.90;;
67140;SDS011;54058;52.010;5.546;2023-03-08T10:54:26;25.83;;;13.57;;
67140;SDS011;54058;52.010;5.546;2023-03-08T10:56:54;24.38;;;14.25;;
67140;SDS011;54058;52.010;5.546;2023-03-08T10:59:31;30.52;;;14.95;;
67140;SDS011;54058;52.010;5.546;2023-03-08T11:02:14;24.27;;;13.30;;
67140;SDS011;54058;52.010;5.546;2023-03-08T11:07:52;21.02;;;10.73;;
67140;SDS011;54058;52.010;5.546;2023-03-08T11:10:21;20.88;;;11.15;;
67140;SDS011;54058;52.010;5.546;2023-03-08T11:18:52;22.77;;;13.13;;
67140;SDS011;54058;52.010;5.546;2023-03-08T11:32:32;23.65;;;10.98;;
67140;SDS011;54058;52.010;5.546;2023-03-08T11:40:57;14.90;;;8.10;;
67140;SDS011;54058;52.010;5.546;2023-03-08T11:57:21;25.05;;;11.93;;
67140;SDS011;54058;52.010;5.546;2023-03-08T11:59:54;22.80;;;11.35;;
67140;SDS011;54058;52.010;5.546;2023-03-08T12:02:31;21.10;;;11.82;;
67140;SDS011;54058;52.010;5.546;2023-03-08T12:07:46;23.70;;;10.82;;
67140;SDS011;54058;52.010;5.546;2023-03-08T12:10:27;20.65;;;10.32;;
67140;SDS011;54058;52.010;5.546;2023-03-08T12:13:05;20.67;;;10.75;;
67140;SDS011;54058;52.010;5.546;2023-03-08T12:15:51;19.08;;;9.50;;
67140;SDS011;54058;52.010;5.546;2023-03-08T12:21:44;18.42;;;8.48;;
67140;SDS011;54058;52.010;5.546;2023-03-08T12:23:47;13.80;;;8.50;;
67140;SDS011;54058;52.010;5.546;2023-03-08T12:28:45;17.13;;;8.40;;
67140;SDS011;54058;52.010;5.546;2023-03-08T12:31:23;13.70;;;8.25;;
67140;SDS011;54058;52.010;5.546;2023-03-08T12:33:55;14.73;;;7.93;;
67140;SDS011;54058;52.010;5.546;2023-03-08T12:36:34;14.23;;;8.20;;
67140;SDS011;54058;52.010;5.546;2023-03-08T12:39:06;15.18;;;8.35;;
67140;SDS011;54058;52.010;5.546;2023-03-08T12:44:36;16.02;;;8.55;;
67140;SDS011;54058;52.010;5.546;2023-03-08T12:54:42;17.15;;;9.38;;
67140;SDS011;54058;52.010;5.546;2023-03-08T12:57:20;21.02;;;9.45;;
67140;SDS011;54058;52.010;5.546;2023-03-08T12:59:48;17.80;;;10.23;;
67140;SDS011;54058;52.010;5.546;2023-03-08T13:02:29;17.07;;;9.70;;
67140;SDS011;54058;52.010;5.546;2023-03-08T13:05:12;13.32;;;8.13;;
67140;SDS011;54058;52.010;5.546;2023-03-08T13:10:28;14.20;;;7.95;;
67140;SDS011;54058;52.010;5.546;2023-03-08T13:15:35;15.77;;;8.68;;
67140;SDS011;54058;52.010;5.546;2023-03-08T13:28:32;14.40;;;8.30;;
67140;SDS011;54058;52.010;5.546;2023-03-08T13:31:18;14.95;;;8.90;;
67140;SDS011;54058;52.010;5.546;2023-03-08T13:33:51;17.73;;;10.27;;
67140;SDS011;54058;52.010;5.546;2023-03-08T13:41:36;12.98;;;7.93;;
67140;SDS011;54058;52.010;5.546;2023-03-08T13:44:04;12.35;;;7.22;;
67140;SDS011;54058;52.010;5.546;2023-03-08T13:46:42;17.25;;;8.45;;
67140;SDS011;54058;52.010;5.546;2023-03-08T13:49:12;15.68;;;9.00;;
67140;SDS011;54058;52.010;5.546;2023-03-08T13:51:43;15.98;;;9.88;;
67140;SDS011;54058;52.010;5.546;2023-03-08T13:54:13;15.80;;;9.07;;
67140;SDS011;54058;52.010;5.546;2023-03-08T13:56:41;21.33;;;8.85;;
67140;SDS011;54058;52.010;5.546;2023-03-08T13:59:13;15.95;;;9.75;;
67140;SDS011;54058;52.010;5.546;2023-03-08T14:01:49;13.50;;;8.98;;
67140;SDS011;54058;52.010;5.546;2023-03-08T14:04:20;15.07;;;8.10;;
67140;SDS011;54058;52.010;5.546;2023-03-08T14:06:49;12.73;;;7.43;;
67140;SDS011;54058;52.010;5.546;2023-03-08T14:09:17;15.75;;;7.63;;
67140;SDS011;54058;52.010;5.546;2023-03-08T14:11:43;16.27;;;7.65;;
67140;SDS011;54058;52.010;5.546;2023-03-08T14:14:15;13.40;;;7.75;;
67140;SDS011;54058;52.010;5.546;2023-03-08T14:16:46;11.48;;;6.35;;
67140;SDS011;54058;52.010;5.546;2023-03-08T14:21:49;9.50;;;5.95;;
67140;SDS011;54058;52.010;5.546;2023-03-08T14:24:21;13.85;;;6.97;;
67140;SDS011;54058;52.010;5.546;2023-03-08T14:26:54;13.18;;;6.95;;
67140;SDS011;54058;52.010;5.546;2023-03-08T14:29:28;12.63;;;7.18;;
67140;SDS011;54058;52.010;5.546;2023-03-08T14:39:41;12.63;;;6.68;;
67140;SDS011;54058;52.010;5.546;2023-03-08T14:44:48;12.98;;;7.40;;
67140;SDS011;54058;52.010;5.546;2023-03-08T14:47:46;14.70;;;7.45;;
67140;SDS011;54058;52.010;5.546;2023-03-08T14:52:49;17.83;;;7.85;;
67140;SDS011;54058;52.010;5.546;2023-03-08T14:55:20;13.73;;;7.85;;
67140;SDS011;54058;52.010;5.546;2023-03-08T14:57:48;13.43;;;7.03;;
67140;SDS011;54058;52.010;5.546;2023-03-08T15:00:16;13.88;;;7.88;;
67140;SDS011;54058;52.010;5.546;2023-03-08T15:02:42;10.80;;;7.30;;
67140;SDS011;54058;52.010;5.546;2023-03-08T15:05:18;14.38;;;7.68;;
67140;SDS011;54058;52.010;5.546;2023-03-08T15:07:47;11.57;;;6.55;;
67140;SDS011;54058;52.010;5.546;2023-03-08T15:12:58;12.07;;;6.90;;
67140;SDS011;54058;52.010;5.546;2023-03-08T15:15:25;12.90;;;6.93;;
67140;SDS011;54058;52.010;5.546;2023-03-08T15:17:50;12.93;;;7.43;;
67140;SDS011;54058;52.010;5.546;2023-03-08T15:20:17;16.98;;;8.10;;
67140;SDS011;54058;52.010;5.546;2023-03-08T15:22:44;15.40;;;8.00;;
67140;SDS011;54058;52.010;5.546;2023-03-08T15:25:13;14.57;;;8.63;;
67140;SDS011;54058;52.010;5.546;2023-03-08T15:27:49;15.02;;;8.15;;
67140;SDS011;54058;52.010;5.546;2023-03-08T15:30:16;15.30;;;7.72;;
67140;SDS011;54058;52.010;5.546;2023-03-08T15:32:49;14.68;;;8.98;;
67140;SDS011;54058;52.010;5.546;2023-03-08T15:35:15;16.63;;;8.82;;
67140;SDS011;54058;52.010;5.546;2023-03-08T15:37:41;16.75;;;9.07;;
67140;SDS011;54058;52.010;5.546;2023-03-08T15:40:11;14.73;;;9.43;;
67140;SDS011;54058;52.010;5.546;2023-03-08T15:42:41;17.20;;;9.45;;
67140;SDS011;54058;52.010;5.546;2023-03-08T15:45:07;19.27;;;10.82;;
67140;SDS011;54058;52.010;5.546;2023-03-08T15:47:34;18.38;;;10.35;;
67140;SDS011;54058;52.010;5.546;2023-03-08T15:49:59;18.50;;;11.00;;
67140;SDS011;54058;52.010;5.546;2023-03-08T15:52:28;16.90;;;9.90;;
67140;SDS011;54058;52.010;5.546;2023-03-08T15:54:56;24.35;;;10.93;;
67140;SDS011;54058;52.010;5.546;2023-03-08T15:57:22;15.05;;;8.88;;
67140;SDS011;54058;52.010;5.546;2023-03-08T15:59:48;16.33;;;9.63;;
67140;SDS011;54058;52.010;5.546;2023-03-08T16:02:16;21.70;;;10.93;;
67140;SDS011;54058;52.010;5.546;2023-03-08T16:04:43;16.00;;;9.13;;
67140;SDS011;54058;52.010;5.546;2023-03-08T16:07:13;17.88;;;10.40;;
67140;SDS011;54058;52.010;5.546;2023-03-08T16:09:42;18.50;;;10.05;;
67140;SDS011;54058;52.010;5.546;2023-03-08T16:12:07;21.25;;;10.70;;
67140;SDS011;54058;52.010;5.546;2023-03-08T16:14:34;19.02;;;10.23;;
67140;SDS011;54058;52.010;5.546;2023-03-08T16:17:00;20.05;;;10.98;;
67140;SDS011;54058;52.010;5.546;2023-03-08T16:19:29;21.65;;;11.25;;
67140;SDS011;54058;52.010;5.546;2023-03-08T16:21:56;21.88;;;11.25;;
67140;SDS011;54058;52.010;5.546;2023-03-08T16:24:22;16.90;;;9.63;;
67140;SDS011;54058;52.010;5.546;2023-03-08T16:26:47;18.90;;;10.27;;
67140;SDS011;54058;52.010;5.546;2023-03-08T16:29:13;17.25;;;10.07;;
67140;SDS011;54058;52.010;5.546;2023-03-08T16:31:39;20.80;;;10.25;;
67140;SDS011;54058;52.010;5.546;2023-03-08T16:34:04;16.63;;;8.68;;
67140;SDS011;54058;52.010;5.546;2023-03-08T16:36:31;26.08;;;10.60;;
67140;SDS011;54058;52.010;5.546;2023-03-08T16:38:57;17.75;;;9.48;;
67140;SDS011;54058;52.010;5.546;2023-03-08T16:41:22;18.02;;;9.93;;
67140;SDS011;54058;52.010;5.546;2023-03-08T16:43:50;21.25;;;10.70;;